createdAt,value
2023-05-19T03:59:12.169Z,20.91
2023-05-19T04:00:12.058Z,20.90
2023-05-19T04:01:12.062Z,20.93
2023-05-19T04:02:12.033Z,20.93
2023-05-19T04:03:12.200Z,20.90
2023-05-19T04:04:12.036Z,20.88
2023-05-19T04:05:12.023Z,20.90
2023-05-19T04:06:12.000Z,20.86
2023-05-19T04:07:12.008Z,20.97
2023-05-19T04:08:11.984Z,21.06
2023-05-19T04:09:11.988Z,20.91
2023-05-19T04:10:11.981Z,20.94
2023-05-19T04:11:11.983Z,21.04
2023-05-19T04:12:11.962Z,21.08
2023-05-19T04:13:11.950Z,21.01
2023-05-19T04:14:11.986Z,21.06
2023-05-19T04:15:11.977Z,20.97
2023-05-19T04:16:11.989Z,21.03
2023-05-19T04:17:11.947Z,21.08
2023-05-19T04:18:11.958Z,21.08
2023-05-19T04:19:12.076Z,21.09
2023-05-19T04:20:11.939Z,21.12
2023-05-19T04:21:11.951Z,21.18
2023-05-19T04:22:11.917Z,21.19
2023-05-19T04:23:11.918Z,21.21
2023-05-19T04:24:11.939Z,21.18
2023-05-19T04:25:11.917Z,21.21
2023-05-19T04:26:11.959Z,21.27
2023-05-19T04:27:11.940Z,21.23
2023-05-19T04:28:11.915Z,21.31
2023-05-19T04:29:11.938Z,21.30
2023-05-19T04:30:11.902Z,21.33
2023-05-19T04:31:11.994Z,21.31
2023-05-19T04:32:11.933Z,21.34
2023-05-19T04:33:11.979Z,21.31
2023-05-19T04:34:11.908Z,21.37
2023-05-19T04:35:11.903Z,21.34
2023-05-19T04:36:11.870Z,21.43
2023-05-19T04:37:11.873Z,21.37
2023-05-19T04:38:11.872Z,21.41
2023-05-19T04:39:11.884Z,21.40
2023-05-19T04:40:11.870Z,21.43
2023-05-19T04:41:11.870Z,21.45
2023-05-19T04:42:11.867Z,21.49
2023-05-19T04:43:11.869Z,21.56
2023-05-19T04:44:11.886Z,21.59
2023-05-19T04:45:11.846Z,21.53
2023-05-19T04:46:13.392Z,21.59
2023-05-19T04:47:11.950Z,21.59
2023-05-19T04:48:11.828Z,21.59
2023-05-19T04:49:11.832Z,21.59
2023-05-19T04:50:11.833Z,21.67
2023-05-19T04:51:11.833Z,21.61
2023-05-19T04:52:11.856Z,21.67
2023-05-19T04:53:11.829Z,21.64
2023-05-19T04:54:11.826Z,21.66
2023-05-19T04:55:11.808Z,21.70
2023-05-19T04:56:11.799Z,21.73
2023-05-19T04:57:11.791Z,21.76
2023-05-19T04:58:11.801Z,21.74
2023-05-19T04:59:11.790Z,21.70
2023-05-19T05:00:11.808Z,21.78
2023-05-19T05:01:11.809Z,21.82
2023-05-19T05:02:11.932Z,21.77
2023-05-19T05:03:11.877Z,21.83
2023-05-19T05:04:11.847Z,21.89
2023-05-19T05:05:11.773Z,21.93
2023-05-19T05:06:11.756Z,21.97
2023-05-19T05:07:11.771Z,22.02
2023-05-19T05:08:11.807Z,22.00
2023-05-19T05:09:11.771Z,22.02
2023-05-19T05:10:11.746Z,22.02
2023-05-19T05:11:11.753Z,22.00
2023-05-19T05:12:11.783Z,22.11
2023-05-19T05:13:12.051Z,22.11
2023-05-19T05:14:11.765Z,22.14
2023-05-19T05:15:11.745Z,22.08
2023-05-19T05:16:11.762Z,22.14
2023-05-19T05:17:11.741Z,22.12
2023-05-19T05:18:11.718Z,22.20
2023-05-19T05:19:11.832Z,22.30
2023-05-19T05:20:11.724Z,22.09
2023-05-19T05:21:11.728Z,22.26
2023-05-19T05:22:11.718Z,22.09
2023-05-19T05:23:11.754Z,22.12
2023-05-19T05:24:11.731Z,22.23
2023-05-19T05:25:11.700Z,22.23
2023-05-19T05:26:11.695Z,22.27
2023-05-19T05:27:11.703Z,22.30
2023-05-19T05:28:11.693Z,22.27
2023-05-19T05:29:11.685Z,22.29
2023-05-19T05:30:11.700Z,22.30
2023-05-19T05:31:11.699Z,22.34
2023-05-19T05:32:11.712Z,22.34
2023-05-19T05:33:11.850Z,22.38
2023-05-19T05:34:11.707Z,22.42
2023-05-19T05:35:11.719Z,22.38
2023-05-19T05:36:11.697Z,22.46
2023-05-19T05:37:13.829Z,22.44
2023-05-19T05:38:11.756Z,22.49
2023-05-19T05:39:11.660Z,22.46
2023-05-19T05:40:11.656Z,22.49
2023-05-19T05:41:11.660Z,22.61
2023-05-19T05:42:11.669Z,22.59
2023-05-19T05:43:11.660Z,22.61
2023-05-19T05:44:11.656Z,22.60
2023-05-19T05:45:11.670Z,22.67
2023-05-19T05:46:11.748Z,22.67
2023-05-19T05:47:11.636Z,22.73
2023-05-19T05:48:11.746Z,22.70
2023-05-19T05:49:11.646Z,22.78
2023-05-19T05:50:11.634Z,22.85
2023-05-19T05:51:11.682Z,22.82
2023-05-19T05:52:11.620Z,22.91
2023-05-19T05:53:11.619Z,22.92
2023-05-19T05:54:11.686Z,22.97
2023-05-19T05:55:11.634Z,23.01
2023-05-19T05:56:11.649Z,23.06
2023-05-19T05:57:11.626Z,23.01
2023-05-19T05:58:11.619Z,23.07
2023-05-19T05:59:11.616Z,23.14
2023-05-19T06:00:11.616Z,23.07
2023-05-19T06:01:11.611Z,23.14
2023-05-19T06:02:32.731Z,23.09
2023-05-19T06:03:11.816Z,23.18
2023-05-19T06:04:11.623Z,23.22
2023-05-19T06:05:11.650Z,23.25
2023-05-19T06:06:11.649Z,23.22
2023-05-19T06:07:11.620Z,23.25
2023-05-19T06:08:11.599Z,23.26
2023-05-19T06:09:11.589Z,23.34
2023-05-19T06:10:11.623Z,23.44
2023-05-19T06:11:11.626Z,23.35
2023-05-19T06:12:11.582Z,23.44
2023-05-19T06:13:11.581Z,23.44
2023-05-19T06:14:11.578Z,23.41
2023-05-19T06:15:11.594Z,23.48
2023-05-19T06:16:11.720Z,23.53
2023-05-19T06:17:11.578Z,23.59
2023-05-19T06:18:11.634Z,23.59
2023-05-19T06:19:11.660Z,23.56
2023-05-19T06:20:11.566Z,23.62
2023-05-19T06:21:11.607Z,23.71
2023-05-19T06:22:11.553Z,23.67
2023-05-19T06:23:11.573Z,23.72
2023-05-19T06:24:11.569Z,23.75
2023-05-19T06:25:11.559Z,23.78
2023-05-19T06:26:11.596Z,23.75
2023-05-19T06:27:11.558Z,23.84
2023-05-19T06:28:11.576Z,23.84
2023-05-19T06:29:11.546Z,23.87
2023-05-19T06:30:11.559Z,23.90
2023-05-19T06:31:11.655Z,24.00
2023-05-19T06:32:11.590Z,23.99
2023-05-19T06:33:11.542Z,23.92
2023-05-19T06:34:11.550Z,23.99
2023-05-19T06:35:11.558Z,24.11
2023-05-19T06:36:11.564Z,24.08
2023-05-19T06:37:11.534Z,24.04
2023-05-19T06:38:11.542Z,24.11
2023-05-19T06:39:11.601Z,24.18
2023-05-19T06:40:11.553Z,24.19
2023-05-19T06:41:11.541Z,24.26
2023-05-19T06:42:11.530Z,24.18
2023-05-19T06:43:11.564Z,24.24
2023-05-19T06:44:11.537Z,24.24
2023-05-19T06:45:11.575Z,24.26
2023-05-19T06:46:11.526Z,24.26
2023-05-19T06:47:11.617Z,24.30
2023-05-19T06:48:11.595Z,24.27
2023-05-19T06:49:11.544Z,24.33
2023-05-19T06:50:11.535Z,24.44
2023-05-19T06:51:11.550Z,24.37
2023-05-19T06:52:11.527Z,24.49
2023-05-19T06:53:11.514Z,24.36
2023-05-19T06:54:11.527Z,24.52
2023-05-19T06:55:11.579Z,24.48
2023-05-19T06:56:11.566Z,24.54
2023-05-19T06:57:11.542Z,24.55
2023-05-19T06:58:11.535Z,24.54
2023-05-19T06:59:11.508Z,24.56
2023-05-19T07:00:11.598Z,24.58
2023-05-19T07:01:11.508Z,24.61
2023-05-19T07:02:11.563Z,24.66
2023-05-19T07:03:11.567Z,24.71
2023-05-19T07:04:11.535Z,24.75
2023-05-19T07:05:11.507Z,24.70
2023-05-19T07:06:11.504Z,24.80
2023-05-19T07:07:11.514Z,24.78
2023-05-19T07:08:11.494Z,24.82
2023-05-19T07:09:11.525Z,24.74
2023-05-19T07:10:11.509Z,24.87
2023-05-19T07:11:11.583Z,24.83
2023-05-19T07:12:11.526Z,24.96
2023-05-19T07:13:11.500Z,24.92
2023-05-19T07:14:11.488Z,24.97
2023-05-19T07:15:11.493Z,24.96
2023-05-19T07:16:11.539Z,25.04
2023-05-19T07:17:11.489Z,25.00
2023-05-19T07:18:11.513Z,24.97
2023-05-19T07:19:11.534Z,25.01
2023-05-19T07:20:11.501Z,25.04
2023-05-19T07:21:11.495Z,25.04
2023-05-19T07:22:11.498Z,25.12
2023-05-19T07:23:11.525Z,25.07
2023-05-19T07:24:11.511Z,25.14
2023-05-19T07:25:11.508Z,25.12
2023-05-19T07:26:11.477Z,25.19
2023-05-19T07:27:11.517Z,25.22
2023-05-19T07:28:11.483Z,25.24
2023-05-19T07:29:11.501Z,25.29
2023-05-19T07:30:11.496Z,25.23
2023-05-19T07:31:11.500Z,25.24
2023-05-19T07:32:11.507Z,25.29
2023-05-19T07:33:11.520Z,25.33
2023-05-19T07:34:11.481Z,25.33
2023-05-19T07:35:11.499Z,25.30
2023-05-19T07:36:11.490Z,25.38
2023-05-19T07:37:11.505Z,25.37
2023-05-19T07:38:11.504Z,25.37
2023-05-19T07:39:11.542Z,25.32
2023-05-19T07:40:11.478Z,25.39
2023-05-19T07:41:11.560Z,25.34
2023-05-19T07:42:11.480Z,25.33
2023-05-19T07:43:11.587Z,25.34
2023-05-19T07:44:11.481Z,25.47
2023-05-19T07:45:11.472Z,25.38
2023-05-19T07:46:11.566Z,25.41
2023-05-19T07:47:11.469Z,25.57
2023-05-19T07:48:11.479Z,25.42
2023-05-19T07:49:11.472Z,25.52
2023-05-19T07:50:11.592Z,25.41
2023-05-19T07:52:44.015Z,25.42
2023-05-19T07:53:43.997Z,25.45
2023-05-19T07:54:43.995Z,25.42
2023-05-19T07:55:44.002Z,25.57
2023-05-19T07:56:43.986Z,25.52
2023-05-19T07:57:43.986Z,25.56
2023-05-19T07:58:44.157Z,25.60
2023-05-19T07:59:43.998Z,25.63
2023-05-19T08:00:43.988Z,25.51
2023-05-19T08:01:43.994Z,25.54
2023-05-19T08:02:44.021Z,25.57
2023-05-19T08:03:44.074Z,25.64
2023-05-19T08:04:44.042Z,25.69
2023-05-19T08:05:43.989Z,25.56
2023-05-19T08:06:43.992Z,25.62
2023-05-19T08:07:43.985Z,25.59
2023-05-19T08:08:43.988Z,25.60
2023-05-19T08:09:43.981Z,25.63
2023-05-19T08:10:43.987Z,25.67
2023-05-19T08:11:43.988Z,25.60
2023-05-19T08:12:43.993Z,25.62
2023-05-19T08:13:43.992Z,25.67
2023-05-19T08:14:44.044Z,25.75
2023-05-19T08:15:44.018Z,25.74
2023-05-19T08:16:43.988Z,25.79
2023-05-19T08:17:44.022Z,25.76
2023-05-19T08:18:44.042Z,25.79
2023-05-19T08:19:43.985Z,25.75
2023-05-19T08:20:44.006Z,25.74
2023-05-19T08:21:44.014Z,25.76
2023-05-19T08:22:43.990Z,25.82
2023-05-19T08:23:43.994Z,25.71
2023-05-19T08:24:43.997Z,25.78
2023-05-19T08:25:44.001Z,25.84
2023-05-19T08:26:44.019Z,25.79
2023-05-19T08:27:44.040Z,25.78
2023-05-19T08:28:43.987Z,25.85
2023-05-19T08:29:43.995Z,25.88
2023-05-19T08:30:44.064Z,25.84
2023-05-19T08:31:44.076Z,25.88
2023-05-19T08:32:44.015Z,25.93
2023-05-19T08:33:43.994Z,25.85
2023-05-19T08:34:43.988Z,25.88
2023-05-19T08:35:43.990Z,25.86
2023-05-19T08:36:43.987Z,25.91
2023-05-19T08:37:43.984Z,25.94
2023-05-19T08:38:43.999Z,25.91
2023-05-19T08:39:43.998Z,25.91
2023-05-19T08:40:44.001Z,25.94
2023-05-19T08:41:44.007Z,26.04
2023-05-19T08:42:43.990Z,26.03
2023-05-19T08:43:44.000Z,25.97
2023-05-19T08:44:44.116Z,26.00
2023-05-19T08:45:43.982Z,26.00
2023-05-19T08:46:44.124Z,26.00
2023-05-19T08:47:44.022Z,26.01
2023-05-19T08:48:44.022Z,26.07
2023-05-19T08:49:43.990Z,26.07
2023-05-19T08:50:43.989Z,26.09
2023-05-19T08:51:43.979Z,26.12
2023-05-19T08:52:45.369Z,26.19
2023-05-19T08:53:43.978Z,26.11
2023-05-19T08:54:43.986Z,26.11
2023-05-19T08:55:43.999Z,26.17
2023-05-19T08:56:43.977Z,26.19
2023-05-19T08:57:43.993Z,26.22
2023-05-19T08:58:44.135Z,26.23
2023-05-19T08:59:44.012Z,26.20
2023-05-19T09:00:43.983Z,26.22
2023-05-19T09:01:44.033Z,26.26
2023-05-19T09:02:54.969Z,26.23
2023-05-19T09:03:44.077Z,26.30
2023-05-19T09:04:44.039Z,26.32
2023-05-19T09:05:44.082Z,26.37
2023-05-19T09:06:43.984Z,26.34
2023-05-19T09:07:43.977Z,26.35
2023-05-19T09:08:43.985Z,26.34
2023-05-19T09:09:44.190Z,26.44
2023-05-19T09:10:43.988Z,26.34
2023-05-19T09:11:43.984Z,26.32
2023-05-19T09:12:43.992Z,26.37
2023-05-19T09:13:43.992Z,26.32
2023-05-19T09:14:43.984Z,26.38
2023-05-19T09:15:43.984Z,26.38
2023-05-19T09:16:44.034Z,26.42
2023-05-19T09:17:44.036Z,26.53
2023-05-19T09:18:44.106Z,26.53
2023-05-19T09:19:44.000Z,26.50
2023-05-19T09:20:44.007Z,26.42
2023-05-19T09:21:44.679Z,26.52
2023-05-19T09:22:44.016Z,26.54
2023-05-19T09:23:43.997Z,26.56
2023-05-19T09:24:43.980Z,26.54
2023-05-19T09:25:43.985Z,26.60
2023-05-19T09:26:44.014Z,26.54
2023-05-19T09:27:43.995Z,26.57
2023-05-19T09:28:43.991Z,26.59
2023-05-19T09:29:43.997Z,26.61
2023-05-19T09:30:43.993Z,26.64
2023-05-19T09:31:44.052Z,26.64
2023-05-19T09:32:44.084Z,26.71
2023-05-19T09:33:45.915Z,26.69
2023-05-19T09:34:44.132Z,26.63
2023-05-19T09:35:44.018Z,26.68
2023-05-19T09:36:44.002Z,26.72
2023-05-19T09:37:44.024Z,26.82
2023-05-19T09:38:44.021Z,26.81
2023-05-19T09:39:43.998Z,26.79
2023-05-19T09:40:43.996Z,26.78
2023-05-19T09:41:44.004Z,26.90
2023-05-19T09:42:44.030Z,26.96
2023-05-19T09:43:44.030Z,26.86
2023-05-19T09:44:44.025Z,26.84
2023-05-19T09:45:44.051Z,26.90
2023-05-19T09:46:44.091Z,27.00
2023-05-19T09:47:44.079Z,26.91
2023-05-19T09:48:44.050Z,26.97
2023-05-19T09:49:44.012Z,27.01
2023-05-19T09:50:44.017Z,27.00
2023-05-19T09:51:44.009Z,27.05
2023-05-19T09:52:44.037Z,27.00
2023-05-19T09:53:44.044Z,27.04
2023-05-19T09:54:44.891Z,27.09
2023-05-19T09:55:44.029Z,27.06
2023-05-19T09:56:44.025Z,27.01
2023-05-19T09:57:44.040Z,27.01
2023-05-19T09:58:44.065Z,27.04
2023-05-19T09:59:44.034Z,27.09
2023-05-19T10:00:44.015Z,27.11
2023-05-19T10:01:44.254Z,27.15
2023-05-19T10:13:37.589Z,27.43
2023-05-19T10:14:37.537Z,27.33
2023-05-19T10:15:49.914Z,27.42
2023-05-19T10:16:37.545Z,27.45
2023-05-19T10:17:37.547Z,27.46
2023-05-19T10:18:39.121Z,27.48
2023-05-19T10:20:37.561Z,27.48
2023-05-19T10:21:37.553Z,27.42
2023-05-19T10:22:37.566Z,27.37
2023-05-19T10:23:37.542Z,27.51
2023-05-19T10:24:37.550Z,27.52
2023-05-19T10:25:37.534Z,27.51
2023-05-19T10:26:37.525Z,27.46
2023-05-19T10:27:37.533Z,27.55
2023-05-19T10:28:37.537Z,27.55
2023-05-19T10:29:37.580Z,27.64
2023-05-19T10:30:37.545Z,27.55
2023-05-19T10:31:37.548Z,27.65
2023-05-19T10:32:37.633Z,27.71
2023-05-19T10:33:37.537Z,27.71
2023-05-19T10:34:37.540Z,27.68
2023-05-19T10:35:37.881Z,27.69
2023-05-19T10:36:37.548Z,27.71
2023-05-19T10:37:37.548Z,27.71
2023-05-19T10:38:37.570Z,27.80
2023-05-19T10:39:37.624Z,27.68
2023-05-19T10:40:37.589Z,27.81
2023-05-19T10:41:37.566Z,27.81
2023-05-19T10:42:37.584Z,27.86
2023-05-19T10:43:37.574Z,27.90
2023-05-19T10:44:37.559Z,27.93
2023-05-19T10:45:37.649Z,28.02
2023-05-19T10:46:37.653Z,28.08
2023-05-19T10:47:37.622Z,28.06
2023-05-19T10:48:37.572Z,28.16
2023-05-19T10:49:37.616Z,28.24
2023-05-19T10:50:37.583Z,28.12
2023-05-19T10:51:37.569Z,28.23
2023-05-19T10:52:37.581Z,28.17
2023-05-19T10:53:37.612Z,28.08
2023-05-19T10:54:37.582Z,28.16
2023-05-19T10:55:37.590Z,28.12
2023-05-19T10:56:37.587Z,28.16
2023-05-19T10:57:37.622Z,28.31
2023-05-19T10:58:37.607Z,28.31
2023-05-19T10:59:37.613Z,28.26
2023-05-19T11:00:37.605Z,28.33
2023-05-19T11:01:37.694Z,28.39
2023-05-19T11:02:37.661Z,28.41
2023-05-19T11:03:37.670Z,28.42
2023-05-19T11:04:37.620Z,28.49
2023-05-19T11:05:37.614Z,28.55
2023-05-19T11:06:37.626Z,28.53
2023-05-19T11:07:37.606Z,28.67
2023-05-19T11:08:37.623Z,28.70
2023-05-19T11:09:40.533Z,28.68
2023-05-19T11:10:37.638Z,28.65
2023-05-19T11:11:37.629Z,28.83
2023-05-19T11:12:37.632Z,28.85
2023-05-19T11:13:37.669Z,29.01
2023-05-19T11:14:37.636Z,29.01
2023-05-19T11:15:37.636Z,29.02
2023-05-19T11:16:37.737Z,29.01
2023-05-19T11:17:37.904Z,29.10
2023-05-19T11:18:37.686Z,29.05
2023-05-19T11:19:37.649Z,29.11
2023-05-19T11:20:37.734Z,29.11
2023-05-19T11:21:37.644Z,29.10
2023-05-19T11:22:37.663Z,29.17
2023-05-19T11:23:37.708Z,29.42
2023-05-19T11:24:37.695Z,29.36
2023-05-19T11:25:37.671Z,29.39
2023-05-19T11:26:37.684Z,29.55
2023-05-19T11:27:37.682Z,29.48
2023-05-19T11:28:37.676Z,29.60
2023-05-19T11:29:37.676Z,29.73
2023-05-19T11:30:37.722Z,29.84
2023-05-19T11:31:37.794Z,29.94
2023-05-19T11:32:37.746Z,30.00
2023-05-19T11:33:37.786Z,29.94
2023-05-19T11:34:37.711Z,30.11
2023-05-19T11:35:37.973Z,30.11
2023-05-19T11:36:37.709Z,30.24
2023-05-19T11:37:37.688Z,30.31
2023-05-19T11:38:37.708Z,30.42
2023-05-19T11:39:37.700Z,30.52
2023-05-19T11:40:37.730Z,30.56
2023-05-19T11:41:37.717Z,30.60
2023-05-19T11:42:37.757Z,30.75
2023-05-19T11:43:37.734Z,30.84
2023-05-19T11:44:37.733Z,30.97
2023-05-19T11:45:37.752Z,30.85
2023-05-19T11:46:37.801Z,30.94
2023-05-19T11:47:50.818Z,30.86
2023-05-19T11:48:37.844Z,30.86
2023-05-19T11:49:37.764Z,30.86
2023-05-19T11:50:37.749Z,30.82
2023-05-19T11:51:37.753Z,30.88
2023-05-19T11:52:37.779Z,31.04
2023-05-19T11:53:37.758Z,31.15
2023-05-19T11:54:37.770Z,31.18
2023-05-19T11:55:37.771Z,31.22
2023-05-19T11:56:37.786Z,31.33
2023-05-19T11:57:37.790Z,31.26
2023-05-19T11:58:37.788Z,31.25
2023-05-19T11:59:37.806Z,31.28
2023-05-19T12:00:37.783Z,31.25
2023-05-19T12:01:37.803Z,31.26
2023-05-19T12:02:37.889Z,31.28
2023-05-19T12:03:37.949Z,31.44
2023-05-19T12:04:37.812Z,31.59
2023-05-19T12:05:41.764Z,31.62
2023-05-19T12:06:37.899Z,31.74
2023-05-19T12:07:37.826Z,31.90
2023-05-19T12:08:37.830Z,31.93
2023-05-19T12:09:37.838Z,31.97
2023-05-19T12:10:37.835Z,32.09
2023-05-19T12:11:37.835Z,32.01
2023-05-19T12:12:37.832Z,31.90
2023-05-19T12:13:37.862Z,31.87
2023-05-19T12:14:37.838Z,31.75
2023-05-19T12:15:37.845Z,31.68
2023-05-19T12:16:37.887Z,31.65
2023-05-19T12:17:37.896Z,31.67
2023-05-19T12:18:37.932Z,31.74
2023-05-19T12:19:37.902Z,31.75
2023-05-19T12:20:37.903Z,31.93
2023-05-19T12:21:37.904Z,32.05
2023-05-19T12:22:37.889Z,32.13
2023-05-19T12:23:37.890Z,32.27
2023-05-19T12:24:37.905Z,32.37
2023-05-19T12:25:37.976Z,32.43
2023-05-19T12:26:37.920Z,32.57
2023-05-19T12:27:37.927Z,32.65
2023-05-19T12:28:37.915Z,32.72
2023-05-19T12:29:37.917Z,32.81
2023-05-19T12:30:38.180Z,32.96
2023-05-19T12:31:38.096Z,33.02
2023-05-19T12:32:38.013Z,33.20
2023-05-19T12:33:37.929Z,33.31
2023-05-19T12:34:37.935Z,33.40
2023-05-19T12:35:38.078Z,33.55
2023-05-19T12:38:10.557Z,33.80
2023-05-19T12:39:10.511Z,33.85
2023-05-19T12:40:10.520Z,33.96
2023-05-19T12:41:10.513Z,33.95
2023-05-19T12:42:10.544Z,33.78
2023-05-19T12:43:10.515Z,33.73
2023-05-19T12:44:10.536Z,33.77
2023-05-19T12:45:10.529Z,33.63
2023-05-19T12:46:10.579Z,33.50
2023-05-19T12:47:10.575Z,33.48
2023-05-19T12:48:10.586Z,33.39
2023-05-19T12:49:10.549Z,33.26
2023-05-19T12:50:10.706Z,33.32
2023-05-19T12:51:10.619Z,33.43
2023-05-19T12:52:13.137Z,33.31
2023-05-19T12:53:10.587Z,33.43
2023-05-19T12:54:10.639Z,33.32
2023-05-19T12:55:10.742Z,33.12
2023-05-19T12:56:10.615Z,33.05
2023-05-19T12:57:10.619Z,32.99
2023-05-19T12:58:10.609Z,32.84
2023-05-19T12:59:10.619Z,32.72
2023-05-19T13:00:10.656Z,32.91
2023-05-19T13:01:10.708Z,33.39
2023-05-19T13:02:10.955Z,33.46
2023-05-19T13:03:10.736Z,33.39
2023-05-19T13:04:11.091Z,33.41
2023-05-19T13:05:10.635Z,33.52
2023-05-19T13:06:10.635Z,33.75
2023-05-19T13:07:10.657Z,33.44
2023-05-19T13:08:10.643Z,33.18
2023-05-19T13:09:10.645Z,33.03
2023-05-19T13:10:10.710Z,32.84
2023-05-19T13:11:10.664Z,32.62
2023-05-19T13:12:10.676Z,32.50
2023-05-19T13:13:10.662Z,32.53
2023-05-19T13:14:10.681Z,32.87
2023-05-19T13:15:10.678Z,33.24
2023-05-19T13:16:10.702Z,33.50
2023-05-19T13:17:10.728Z,33.71
2023-05-19T13:18:10.705Z,33.81
2023-05-19T13:19:23.926Z,33.90
2023-05-19T13:20:10.717Z,33.92
2023-05-19T13:21:10.716Z,34.14
2023-05-19T13:22:10.704Z,34.30
2023-05-19T13:23:10.738Z,34.56
2023-05-19T13:24:10.737Z,34.63
2023-05-19T13:25:10.718Z,34.81
2023-05-19T13:26:10.780Z,34.84
2023-05-19T13:27:10.732Z,34.97
2023-05-19T13:28:10.750Z,35.18
2023-05-19T13:29:10.749Z,35.20
2023-05-19T13:30:10.774Z,35.38
2023-05-19T13:31:10.796Z,35.34
2023-05-19T13:32:10.801Z,35.42
2023-05-19T13:33:10.823Z,35.26
2023-05-19T13:34:10.785Z,35.24
2023-05-19T13:35:10.825Z,35.31
2023-05-19T13:36:10.826Z,35.21
2023-05-19T13:37:10.873Z,35.20
2023-05-19T13:38:11.005Z,34.97
2023-05-19T13:39:10.820Z,34.81
2023-05-19T13:40:10.862Z,34.69
2023-05-19T13:41:10.966Z,34.79
2023-05-19T13:42:10.828Z,34.91
2023-05-19T13:43:10.825Z,35.18
2023-05-19T13:44:10.888Z,35.40
2023-05-19T13:45:10.863Z,35.50
2023-05-19T13:46:10.926Z,35.62
2023-05-19T13:47:10.965Z,35.79
2023-05-19T13:48:10.967Z,35.82
2023-05-19T13:49:10.896Z,35.99
2023-05-19T13:50:10.868Z,35.98
2023-05-19T13:51:10.891Z,36.08
2023-05-19T13:52:10.877Z,36.22
2023-05-19T13:53:10.887Z,36.08
2023-05-19T13:54:10.899Z,36.05
2023-05-19T13:55:10.913Z,35.99
2023-05-19T13:56:10.916Z,35.98
2023-05-19T13:57:10.911Z,36.21
2023-05-19T13:58:11.231Z,36.22
2023-05-19T13:59:10.932Z,36.36
2023-05-19T14:00:10.955Z,36.47
2023-05-19T14:01:10.973Z,36.44
2023-05-19T14:02:11.025Z,36.62
2023-05-19T14:03:11.088Z,36.65
2023-05-19T14:04:11.087Z,36.70
2023-05-19T14:05:10.966Z,36.83
2023-05-19T14:06:10.978Z,36.92
2023-05-19T14:07:10.994Z,36.92
2023-05-19T14:08:11.030Z,36.99
2023-05-19T14:09:11.014Z,37.00
2023-05-19T14:10:11.041Z,37.08
2023-05-19T14:11:11.054Z,37.04
2023-05-19T14:12:11.052Z,37.11
2023-05-19T14:14:11.628Z,37.17
2023-05-19T14:15:11.597Z,36.86
2023-05-19T14:16:11.167Z,36.62
2023-05-19T14:17:11.065Z,36.26
2023-05-19T14:18:11.218Z,36.12
2023-05-19T14:19:11.120Z,36.02
2023-05-19T14:20:11.108Z,36.18
2023-05-19T14:21:11.093Z,36.24
2023-05-19T14:22:11.131Z,36.39
2023-05-19T14:23:11.139Z,36.56
2023-05-19T14:24:11.140Z,36.63
2023-05-19T14:25:11.158Z,36.65
2023-05-19T14:26:11.150Z,36.51
2023-05-19T14:27:11.138Z,36.26
2023-05-19T14:28:11.185Z,36.17
2023-05-19T14:29:11.165Z,36.02
2023-05-19T14:30:11.176Z,35.74
2023-05-19T14:31:11.187Z,35.53
2023-05-19T14:32:11.173Z,35.57
2023-05-19T14:33:11.287Z,35.39
2023-05-19T14:34:11.213Z,35.24
2023-05-19T14:35:11.215Z,34.91
2023-05-19T14:36:11.217Z,34.69
2023-05-19T14:37:11.225Z,34.61
2023-05-19T14:38:11.304Z,34.41
2023-05-19T14:39:11.232Z,34.19
2023-05-19T14:40:11.232Z,34.12
2023-05-19T14:41:11.236Z,34.10
2023-05-19T14:42:11.242Z,34.24
2023-05-19T14:43:11.248Z,34.43
2023-05-19T14:44:11.235Z,34.55
2023-05-19T14:45:11.413Z,34.69
2023-05-19T14:46:11.299Z,34.84
2023-05-19T14:47:11.529Z,34.87
2023-05-19T14:48:11.278Z,34.97
2023-05-19T14:49:11.273Z,35.01
2023-05-19T14:50:11.285Z,34.81
2023-05-19T14:51:11.311Z,34.64
2023-05-19T14:52:11.282Z,34.55
2023-05-19T14:53:11.288Z,34.45
2023-05-19T14:54:11.292Z,34.30
2023-05-19T14:55:11.305Z,34.24
2023-05-19T14:56:11.338Z,34.19
2023-05-19T14:57:11.315Z,34.22
2023-05-19T14:58:26.764Z,34.06
2023-05-19T14:59:11.324Z,34.06
2023-05-19T15:00:11.330Z,34.06
2023-05-19T15:01:11.371Z,34.18
2023-05-19T15:02:11.372Z,34.19
2023-05-19T15:03:11.361Z,34.27
2023-05-19T15:04:11.380Z,34.34
2023-05-19T15:05:11.341Z,34.37
2023-05-19T15:06:11.387Z,34.40
2023-05-19T15:07:11.452Z,34.43
2023-05-19T15:08:11.372Z,34.49
2023-05-19T15:09:11.372Z,34.55
2023-05-19T15:10:11.390Z,34.54
2023-05-19T15:11:11.449Z,34.52
2023-05-19T15:12:11.387Z,34.54
2023-05-19T15:13:11.388Z,34.52
2023-05-19T15:14:11.425Z,34.58
2023-05-19T15:15:11.404Z,34.52
2023-05-19T15:17:11.501Z,34.29
2023-05-19T15:18:11.540Z,34.10
2023-05-19T15:19:11.506Z,33.85
2023-05-19T15:20:11.452Z,33.63
2023-05-19T15:21:11.448Z,33.58
2023-05-19T15:22:11.445Z,33.31
2023-05-19T15:23:11.469Z,33.08
2023-05-19T15:24:11.466Z,32.99
2023-05-19T15:25:11.482Z,32.81
2023-05-19T15:26:11.474Z,32.72
2023-05-19T15:27:11.492Z,32.53
2023-05-19T15:28:11.494Z,32.30
2023-05-19T15:29:11.474Z,32.30
2023-05-19T15:30:11.494Z,32.25
2023-05-19T15:31:11.554Z,32.13
2023-05-19T15:32:11.520Z,31.95
2023-05-19T15:33:11.541Z,31.87
2023-05-19T15:34:11.518Z,31.71
2023-05-19T15:35:11.554Z,31.59
2023-05-19T15:36:11.501Z,31.50
2023-05-19T15:37:11.534Z,31.49
2023-05-19T15:38:11.535Z,31.38
2023-05-19T15:39:11.525Z,31.31
2023-05-19T15:40:11.534Z,31.22
2023-05-19T15:41:11.546Z,31.21
2023-05-19T15:42:11.534Z,31.12
2023-05-19T15:43:11.545Z,31.06
2023-05-19T15:44:11.555Z,30.93
2023-05-19T15:45:11.555Z,30.94
2023-05-19T15:46:11.554Z,30.85
2023-05-19T15:47:11.548Z,30.63
2023-05-19T15:48:11.701Z,30.52
2023-05-19T15:49:12.585Z,30.54
2023-05-19T15:50:11.631Z,30.37
2023-05-19T15:51:11.546Z,30.24
2023-05-19T15:52:11.572Z,30.11
2023-05-19T15:53:11.555Z,30.09
2023-05-19T15:54:11.577Z,29.94
2023-05-19T15:55:11.564Z,29.95
2023-05-19T15:56:11.595Z,29.84
2023-05-19T15:57:11.582Z,29.79
2023-05-19T15:58:11.573Z,29.70
2023-05-19T15:59:11.622Z,29.60
2023-05-19T16:00:11.573Z,29.57
2023-05-19T16:01:11.628Z,29.51
2023-05-19T16:12:49.402Z,28.67
2023-05-19T16:13:49.381Z,28.58
2023-05-19T16:14:49.391Z,28.54
2023-05-19T16:15:49.393Z,28.43
2023-05-19T16:16:49.491Z,28.43
2023-05-19T16:17:49.372Z,28.39
2023-05-19T16:18:49.447Z,28.33
2023-05-19T16:19:49.362Z,28.24
2023-05-19T16:20:49.379Z,28.26
2023-05-19T16:21:49.381Z,28.35
2023-05-19T16:22:49.383Z,28.16
2023-05-19T16:23:49.375Z,28.09
2023-05-19T16:24:49.349Z,28.18
2023-05-19T16:25:49.370Z,28.05
2023-05-19T16:26:49.400Z,28.01
2023-05-19T16:27:49.386Z,28.02
2023-05-19T16:28:49.410Z,28.03
2023-05-19T16:29:49.371Z,28.05
2023-05-19T16:30:49.359Z,27.96
2023-05-19T16:31:49.480Z,27.93
2023-05-19T16:32:49.425Z,27.91
2023-05-19T16:33:49.372Z,27.89
2023-05-19T16:34:49.367Z,27.76
2023-05-19T16:35:49.434Z,27.71
2023-05-19T16:36:49.372Z,27.72
2023-05-19T16:37:49.384Z,27.61
2023-05-19T16:38:49.401Z,27.64
2023-05-19T16:39:49.360Z,27.57
2023-05-19T16:40:49.419Z,27.53
2023-05-19T16:41:49.359Z,27.57
2023-05-19T16:42:49.364Z,27.49
2023-05-19T16:43:49.419Z,27.43
2023-05-19T16:44:49.402Z,27.33
2023-05-19T16:45:49.405Z,27.33
2023-05-19T16:46:49.381Z,27.23
2023-05-19T16:47:49.439Z,27.24
2023-05-19T16:48:49.394Z,27.13
2023-05-19T16:49:49.385Z,27.15
2023-05-19T16:50:49.418Z,27.04
2023-05-19T16:51:49.370Z,27.05
2023-05-19T16:52:49.379Z,26.97
2023-05-19T16:53:49.390Z,26.89
2023-05-19T16:54:49.382Z,26.91
2023-05-19T16:55:49.382Z,26.87
2023-05-19T16:56:49.368Z,26.84
2023-05-19T16:57:49.367Z,26.79
2023-05-19T16:58:49.393Z,26.75
2023-05-19T16:59:49.391Z,26.78
2023-05-19T17:00:49.444Z,26.74
2023-05-19T17:01:49.548Z,26.74
2023-05-19T17:02:49.526Z,26.64
2023-05-19T17:03:49.457Z,26.60
2023-05-19T17:04:49.365Z,26.59
2023-05-19T17:05:49.368Z,26.56
2023-05-19T17:06:49.364Z,26.53
2023-05-19T17:07:49.421Z,26.44
2023-05-19T17:08:49.377Z,26.50
2023-05-19T17:09:49.380Z,26.45
2023-05-19T17:10:49.374Z,26.35
2023-05-19T17:11:49.369Z,26.31
2023-05-19T17:12:49.368Z,26.30
2023-05-19T17:13:49.359Z,26.35
2023-05-19T17:14:49.388Z,26.37
2023-05-19T17:15:49.387Z,26.32
2023-05-19T17:16:49.518Z,26.24
2023-05-19T17:17:49.398Z,26.34
2023-05-19T17:18:49.403Z,26.22